New Milford, New Jersey
Current Conditions -  °F | °C
As of 7:51 AM on Saturday 25 Oct 2014 (Local Time) from KTEB Reporting Station
Clear Clear  
Wind Chill: 45°   Ceiling: Unl
Heat Index: 45°   Visibility: 10mi
Dew Point: 37°   Wind: 0mph
Humidity: 74%   Direction: NA
Pressure: 29.87"   Gusts: NA
Location:  40.92°N, 74.03°W
Report Text: KTEB 251151Z 00000KT 10SM CLR 07/03 A2987 RMK AO2 SLP114 T00720028 10117 20056 53006
Loading
Personal Weather Stations






























Interactive Weather Map
Tropical Storm Tracking
New forecast layout! Learn more

10-Day Weather Forecast

Advertisements
Track Severe Weather on mobile